Bow Clipper — LAUU4 — position and weather

sailwx.info

Track history (hours):
 
Tides and Currents Weather Stations Pressure Air Temp Water Temp Dewpoint Dewpoint Depression Visibility Wind Speed Wind Dir Waves Ship Positions

Bow Clipper

Last reported at 2017-Aug-17 21:30 UTC. Time now 2017-Aug-18 04:46 UTC.
Position N 51°57' E 002°40'.

Length 188 m; draft 6.1 m.

Type: Ship (hazmat cat B). MMSI: 258946991.

Date/timePositionNaut miles runAvg speedWind from/ knotsBaromVisibWave heightAir tempDewpointWater temp
2017-Aug-17 21:30N 51°57' E 002°40'714.2
2017-Aug-17 21:00N 51°51' E 002°40'713.8
2017-Aug-17 20:30N 51°45' E 002°34'1014.7
2017-Aug-17 19:50N 51°37' E 002°25'514.4
2017-Aug-17 19:30N 51°33' E 002°20'714.5
2017-Aug-17 19:01N 51°28' E 002°12'511.0
2017-Aug-17 18:30N 51°22' E 002°13'510.7
2017-Aug-17 18:00N 51°21' E 002°21'611.7
2017-Aug-17 17:30N 51°23' E 002°30'612.1
2017-Aug-17 17:01N 51°23' E 002°40'510.3
2017-Aug-17 16:31N 51°22' E 002°48'714.1
2017-Aug-17 16:00N 51°24' E 002°59'713.2
2017-Aug-17 15:31N 51°24' E 003°10'714.6
2017-Aug-17 15:00N 51°25' E 003°21'714.7
2017-Aug-17 14:30N 51°25' E 003°33'5 9.6
2017-Aug-17 14:01N 51°26' E 003°41'714.8
2017-Aug-17 13:31N 51°21' E 003°49'714.0
2017-Aug-17 13:01N 51°25' E 003°58'510.5
2017-Aug-17 12:31N 51°22' E 004°05'510.8
2017-Aug-17 12:01N 51°22' E 004°13'510.8
2017-Aug-17 11:31N 51°18' E 004°19'1 2.2
2017-Aug-17 11:00N 51°17' E 004°20'1 1.1
2017-Aug-17 10:30N 51°16' E 004°20'1 1.9
2017-Aug-17 09:58N 51°16' E 004°22'0 0.0
2017-Aug-17 09:28N 51°16' E 004°22'0 0.0
2017-Aug-17 09:00N 51°16' E 004°22'0 0.0
2017-Aug-17 08:30N 51°16' E 004°22'0 0.0
2017-Aug-17 07:56N 51°16' E 004°22'0 0.0
2017-Aug-17 07:28N 51°16' E 004°22'0 0.0
2017-Aug-17 06:59N 51°16' E 004°22'0 0.0
2017-Aug-17 06:30N 51°16' E 004°22'0 0.0
2017-Aug-17 05:59N 51°16' E 004°22'0 0.0
2017-Aug-17 05:30N 51°16' E 004°22'0 0.0
2017-Aug-17 05:00N 51°16' E 004°22'0 0.0
2017-Aug-17 04:28N 51°16' E 004°22'0 0.0
2017-Aug-17 03:59N 51°16' E 004°22'0 0.0
2017-Aug-17 03:26N 51°16' E 004°22'0 0.0
2017-Aug-17 02:57N 51°16' E 004°22'0 0.0
2017-Aug-17 02:27N 51°16' E 004°22'0 0.0
2017-Aug-17 01:59N 51°16' E 004°22'0 0.0
2017-Aug-17 01:30N 51°16' E 004°22'0 0.0
2017-Aug-17 00:58N 51°16' E 004°22'0 0.0
2017-Aug-17 00:29N 51°16' E 004°22'0 0.0
2017-Aug-16 23:58N 51°16' E 004°22'0 0.0
2017-Aug-16 23:28N 51°16' E 004°22'0 0.0
2017-Aug-16 22:59N 51°16' E 004°22'0 0.0
2017-Aug-16 22:30N 51°16' E 004°22'0 0.0
2017-Aug-16 22:00N 51°16' E 004°22'0 0.0
2017-Aug-16 21:31N 51°16' E 004°22'0 0.0
2017-Aug-16 21:01N 51°16' E 004°22'0 0.0
2017-Aug-16 20:30N 51°16' E 004°22'0 0.0
2017-Aug-16 19:57N 51°16' E 004°22'0 0.0
2017-Aug-16 19:22N 51°16' E 004°22'0 0.0
2017-Aug-16 18:58N 51°16' E 004°22'0 0.0
2017-Aug-16 18:29N 51°16' E 004°22'0 0.0
2017-Aug-16 18:00N 51°16' E 004°22'0 0.0
2017-Aug-16 17:30N 51°16' E 004°22'0 0.0
2017-Aug-16 17:01N 51°16' E 004°22'0 0.0
2017-Aug-16 16:30N 51°16' E 004°22'0 0.0
2017-Aug-16 15:57N 51°16' E 004°22'0 0.0
2017-Aug-16 15:29N 51°16' E 004°22'0 0.0
2017-Aug-16 15:00N 51°16' E 004°22'0 0.3
2017-Aug-16 14:26N 51°15' E 004°22'0 0.0
2017-Aug-16 13:56N 51°15' E 004°22'0 0.1
2017-Aug-16 13:23N 51°15' E 004°22'0 0.2
2017-Aug-16 12:59N 51°15' E 004°22'0 0.2
2017-Aug-16 12:29N 51°15' E 004°22'0 0.1
2017-Aug-16 11:56N 51°15' E 004°22'0 0.0
2017-Aug-16 11:23N 51°15' E 004°22'0 0.3
2017-Aug-16 11:01N 51°15' E 004°21'1 2.6
2017-Aug-16 10:31N 51°17' E 004°20'2 4.8
2017-Aug-16 10:01N 51°19' E 004°19'3 5.9
2017-Aug-16 09:31N 51°22' E 004°17'0 0.0
2017-Aug-15 17:11N 51°22' E 004°17'0 0.0
2017-Aug-15 14:38N 51°22' E 004°17'0 0.0
2017-Aug-15 13:02N 51°22' E 004°17'0 0.0
2017-Aug-15 11:47N 51°22' E 004°17'0 0.8
2017-Aug-15 11:29N 51°22' E 004°17'1 1.8
2017-Aug-15 11:01N 51°21' E 004°17'0 0.0
2017-Aug-15 10:29N 51°21' E 004°17'0 0.1
2017-Aug-15 10:00N 51°21' E 004°17'1 1.4
2017-Aug-15 09:30N 51°20' E 004°16'4 7.1
2017-Aug-15 09:00N 51°17' E 004°15'0 0.6
2017-Aug-15 08:30N 51°17' E 004°15'0 1.0
2017-Aug-15 08:00N 51°16' E 004°15'1 0.8
2017-Aug-15 07:10N 51°16' E 004°15'0 0.0
2017-Aug-15 06:16N 51°16' E 004°15'0 0.0
2017-Aug-15 05:28N 51°16' E 004°15'0 0.0
2017-Aug-15 04:58N 51°16' E 004°15'0 0.0
2017-Aug-15 04:16N 51°16' E 004°15'0 0.0
2017-Aug-15 02:25N 51°16' E 004°15'0 0.0
2017-Aug-15 01:58N 51°16' E 004°15'0 0.0
2017-Aug-15 00:04N 51°16' E 004°15'0 0.0
2017-Aug-14 23:52N 51°16' E 004°15'0 0.0
2017-Aug-14 23:22N 51°16' E 004°15'0 0.0
2017-Aug-14 22:52N 51°16' E 004°15'0 0.0
2017-Aug-14 22:28N 51°16' E 004°15'0 0.0
2017-Aug-14 21:34N 51°16' E 004°15'0 0.0
2017-Aug-14 21:25N 51°16' E 004°15'0 0.0
2017-Aug-14 20:27N 51°16' E 004°15'0 0.0
2017-Aug-14 19:51N 51°16' E 004°15'0 0.0
2017-Aug-14 19:15N 51°16' E 004°15'0 0.0
2017-Aug-14 18:57N 51°16' E 004°15'0 0.0
2017-Aug-14 18:18N 51°16' E 004°15'0 0.0
2017-Aug-14 17:56N 51°16' E 004°15'0 0.0
2017-Aug-14 17:26N 51°16' E 004°15'0 0.0
2017-Aug-14 16:54N 51°16' E 004°15'0 0.0
2017-Aug-14 16:19N 51°16' E 004°15'0 0.0
2017-Aug-14 15:55N 51°16' E 004°15'0 0.0
2017-Aug-14 15:28N 51°16' E 004°15'0 0.0
2017-Aug-14 14:43N 51°16' E 004°15'0 0.0
2017-Aug-14 14:25N 51°16' E 004°15'0 0.0
2017-Aug-14 13:43N 51°16' E 004°15'0 0.0
2017-Aug-14 13:07N 51°16' E 004°15'0 0.0
2017-Aug-14 12:58N 51°16' E 004°15'0 0.0
2017-Aug-14 12:25N 51°16' E 004°15'0 0.0
2017-Aug-14 11:58N 51°16' E 004°15'0 0.0
2017-Aug-14 11:25N 51°16' E 004°15'0 0.0
2017-Aug-14 10:55N 51°16' E 004°15'0 0.0
2017-Aug-14 10:13N 51°16' E 004°15'0 0.0
2017-Aug-14 09:58N 51°16' E 004°15'0 0.0
2017-Aug-14 08:31N 51°16' E 004°15'0 0.0
2017-Aug-14 08:10N 51°16' E 004°15'0 0.0
2017-Aug-14 07:52N 51°16' E 004°15'0 0.0
2017-Aug-14 07:28N 51°16' E 004°15'0 0.0
2017-Aug-14 06:55N 51°16' E 004°15'0 0.0
2017-Aug-14 06:25N 51°16' E 004°15'0 0.0
2017-Aug-14 04:34N 51°16' E 004°15'0 0.0
2017-Aug-14 04:28N 51°16' E 004°15'0 0.0
2017-Aug-14 03:40N 51°16' E 004°15'0 0.0
2017-Aug-14 03:25N 51°16' E 004°15'0 0.0
2017-Aug-14 02:43N 51°16' E 004°15'0 0.0
2017-Aug-14 02:28N 51°16' E 004°15'0 0.0
2017-Aug-14 01:52N 51°16' E 004°15'0 0.0
2017-Aug-14 01:19N 51°16' E 004°15'0 0.0
2017-Aug-14 00:49N 51°16' E 004°15'0 0.0
2017-Aug-14 00:30N 51°16' E 004°15'0 0.1
2017-Aug-13 23:59N 51°16' E 004°15'0 0.0
2017-Aug-13 23:23N 51°16' E 004°15'0 0.0
2017-Aug-13 22:34N 51°16' E 004°15'0 0.0
2017-Aug-13 22:19N 51°16' E 004°15'0 0.0
2017-Aug-13 21:55N 51°16' E 004°15'0 0.0
2017-Aug-13 21:10N 51°16' E 004°15'0 0.0
2017-Aug-13 20:40N 51°16' E 004°15'0 0.0
2017-Aug-13 20:28N 51°16' E 004°15'0 0.0
2017-Aug-13 19:52N 51°16' E 004°15'0 0.0
2017-Aug-13 19:28N 51°16' E 004°15'0 0.0
2017-Aug-13 18:22N 51°16' E 004°15'0 0.0
2017-Aug-13 17:01N 51°16' E 004°15'0 0.0
2017-Aug-13 16:55N 51°16' E 004°15'0 0.0
2017-Aug-13 16:28N 51°16' E 004°15'0 0.0
2017-Aug-13 15:59N 51°16' E 004°15'0 0.0
2017-Aug-13 15:18N 51°16' E 004°15'0 0.0
2017-Aug-13 15:00N 51°16' E 004°15'0 0.0
2017-Aug-13 13:39N 51°16' E 004°15'0 0.0
2017-Aug-13 13:30N 51°16' E 004°15'0 0.0
2017-Aug-13 13:00N 51°16' E 004°15'0 0.0
2017-Aug-13 12:30N 51°16' E 004°15'0 0.0
2017-Aug-13 11:21N 51°16' E 004°15'0 0.0
2017-Aug-13 10:48N 51°16' E 004°15'0 0.0
2017-Aug-13 10:27N 51°16' E 004°15'0 0.0
2017-Aug-13 09:42N 51°16' E 004°15'0 0.0
2017-Aug-13 09:27N 51°16' E 004°15'0 0.0
2017-Aug-13 08:54N 51°16' E 004°15'0 0.0
2017-Aug-13 08:21N 51°16' E 004°15'0 0.0
2017-Aug-13 07:57N 51°16' E 004°15'0 0.0
2017-Aug-13 07:27N 51°16' E 004°15'0 0.0
2017-Aug-13 07:00N 51°16' E 004°15'0 0.0
2017-Aug-13 06:30N 51°16' E 004°15'0 0.0
2017-Aug-13 05:59N 51°16' E 004°15'0 0.0
2017-Aug-13 05:23N 51°16' E 004°15'0 0.0
2017-Aug-13 04:56N 51°16' E 004°15'0 0.0
2017-Aug-13 04:26N 51°16' E 004°15'0 0.0
2017-Aug-13 03:59N 51°16' E 004°15'0 0.0
2017-Aug-13 03:23N 51°16' E 004°15'0 0.0
2017-Aug-13 02:59N 51°16' E 004°15'0 0.0
2017-Aug-13 02:29N 51°16' E 004°15'0 0.0
2017-Aug-13 01:56N 51°16' E 004°15'0 0.0
2017-Aug-13 01:29N 51°16' E 004°15'0 0.0
2017-Aug-13 00:59N 51°16' E 004°15'0 0.0
2017-Aug-13 00:14N 51°16' E 004°15'0 0.0
2017-Aug-12 23:50N 51°16' E 004°15'0 0.0
2017-Aug-12 23:26N 51°16' E 004°15'0 0.0
2017-Aug-12 22:47N 51°16' E 004°15'0 0.0
2017-Aug-12 22:29N 51°16' E 004°15'0 0.0
2017-Aug-12 21:59N 51°16' E 004°15'0 0.0
2017-Aug-12 21:29N 51°16' E 004°15'0 0.0
2017-Aug-12 20:47N 51°16' E 004°15'0 0.0
2017-Aug-12 20:29N 51°16' E 004°15'0 0.0
2017-Aug-12 19:41N 51°16' E 004°15'0 0.0
2017-Aug-12 19:26N 51°16' E 004°15'0 0.0
2017-Aug-12 18:56N 51°16' E 004°15'0 0.0
2017-Aug-12 18:26N 51°16' E 004°15'0 0.0
2017-Aug-12 17:59N 51°16' E 004°15'0 0.0
2017-Aug-12 17:11N 51°16' E 004°15'0 0.0
2017-Aug-12 16:47N 51°16' E 004°15'0 0.0
2017-Aug-12 16:23N 51°16' E 004°15'0 0.0
2017-Aug-12 15:59N 51°16' E 004°15'0 0.0
2017-Aug-12 15:20N 51°16' E 004°15'0 0.0
2017-Aug-12 14:56N 51°16' E 004°15'0 0.0
2017-Aug-12 14:23N 51°16' E 004°15'0 0.0
2017-Aug-12 13:59N 51°16' E 004°15'0 0.0
2017-Aug-12 13:23N 51°16' E 004°15'0 0.0
2017-Aug-12 12:56N 51°16' E 004°15'0 0.0
2017-Aug-12 12:26N 51°16' E 004°15'0 0.0
2017-Aug-12 11:53N 51°16' E 004°15'0 0.0
2017-Aug-12 11:26N 51°16' E 004°15'0 0.0
2017-Aug-12 10:59N 51°16' E 004°15'0 0.0
2017-Aug-12 10:20N 51°16' E 004°15'0 0.0
2017-Aug-12 09:53N 51°16' E 004°15'0 0.0
2017-Aug-12 09:29N 51°16' E 004°15'0 0.0
2017-Aug-12 08:23N 51°16' E 004°15'0 0.0
2017-Aug-12 07:44N 51°16' E 004°15'0 0.0
2017-Aug-12 07:26N 51°16' E 004°15'0 0.0
2017-Aug-12 06:56N 51°16' E 004°15'0 0.0
2017-Aug-12 06:14N 51°16' E 004°15'0 0.0
2017-Aug-12 05:44N 51°16' E 004°15'0 0.0
2017-Aug-12 05:29N 51°16' E 004°15'0 0.0
2017-Aug-12 04:59N 51°16' E 004°15'0 0.0
2017-Aug-12 04:29N 51°16' E 004°15'0 0.0
2017-Aug-12 03:59N 51°16' E 004°15'0 0.0
2017-Aug-12 03:29N 51°16' E 004°15'0 0.0
2017-Aug-12 02:59N 51°16' E 004°15'0 0.0
2017-Aug-12 02:17N 51°16' E 004°15'0 0.0
2017-Aug-12 01:56N 51°16' E 004°15'0 0.0
2017-Aug-12 01:26N 51°16' E 004°15'0 0.0
2017-Aug-12 00:56N 51°16' E 004°15'0 0.0
2017-Aug-12 00:17N 51°16' E 004°15'0 0.0
2017-Aug-11 23:53N 51°16' E 004°15'0 0.0
2017-Aug-11 23:11N 51°16' E 004°15'0 0.0
2017-Aug-11 22:59N 51°16' E 004°15'0 0.0
2017-Aug-11 22:23N 51°16' E 004°15'0 0.0
2017-Aug-11 21:59N 51°16' E 004°15'0 0.0
2017-Aug-11 21:26N 51°16' E 004°15'0 0.0
2017-Aug-11 20:56N 51°16' E 004°15'0 0.0
2017-Aug-11 20:29N 51°16' E 004°15'0 0.0
2017-Aug-11 19:53N 51°16' E 004°15'0 0.0
2017-Aug-11 19:29N 51°16' E 004°15'0 0.0
2017-Aug-11 18:50N 51°16' E 004°15'0 0.0
2017-Aug-11 18:08N 51°16' E 004°15'0 0.0
2017-Aug-11 17:53N 51°16' E 004°15'0 0.0
2017-Aug-11 17:17N 51°16' E 004°15'0 0.0
2017-Aug-11 16:50N 51°16' E 004°15'0 0.0
2017-Aug-11 15:56N 51°16' E 004°15'0 0.0
2017-Aug-11 15:23N 51°16' E 004°15'0 0.0
2017-Aug-11 14:53N 51°16' E 004°15'0 0.0
2017-Aug-11 13:53N 51°16' E 004°15'0 0.0
2017-Aug-11 13:29N 51°16' E 004°15'0 0.0
2017-Aug-11 12:11N 51°16' E 004°15'0 0.0
2017-Aug-11 11:59N 51°16' E 004°15'0 0.0
2017-Aug-11 11:29N 51°16' E 004°15'0 0.0
2017-Aug-11 10:59N 51°16' E 004°15'0 0.0
2017-Aug-11 10:29N 51°16' E 004°15'0 0.0
2017-Aug-11 09:50N 51°16' E 004°15'0 0.0
2017-Aug-11 09:26N 51°16' E 004°15'0 0.0
2017-Aug-11 08:59N 51°16' E 004°15'0 0.0
2017-Aug-11 08:23N 51°16' E 004°15'0 0.0
2017-Aug-11 07:53N 51°16' E 004°15'0 0.0
2017-Aug-11 07:29N 51°16' E 004°15'0 0.0
2017-Aug-11 06:59N 51°16' E 004°15'0 0.0
2017-Aug-11 06:20N 51°16' E 004°15'0 0.0
2017-Aug-11 05:59N 51°16' E 004°15'0 0.0
2017-Aug-11 05:23N 51°16' E 004°15'0 0.0
2017-Aug-11 04:59N 51°16' E 004°15'0 0.0
2017-Aug-11 04:05N 51°16' E 004°15'0 0.0
2017-Aug-11 03:47N 51°16' E 004°15'0 0.0
2017-Aug-11 03:20N 51°16' E 004°15'0 0.0
2017-Aug-11 02:56N 51°16' E 004°15'0 0.0
2017-Aug-11 02:26N 51°16' E 004°15'0 0.0
2017-Aug-11 01:56N 51°16' E 004°15'0 0.0
2017-Aug-11 01:29N 51°16' E 004°15'0 0.0
2017-Aug-11 00:50N 51°16' E 004°15'0 0.0
2017-Aug-11 00:20N 51°16' E 004°15'0 0.0
2017-Aug-10 23:59N 51°16' E 004°15'0 0.0
2017-Aug-10 23:29N 51°16' E 004°15'0 0.0
2017-Aug-10 22:59N 51°16' E 004°15'0 0.0
2017-Aug-10 22:23N 51°16' E 004°15'0 0.0
2017-Aug-10 21:14N 51°16' E 004°15'0 0.0
2017-Aug-10 20:53N 51°16' E 004°15'0 0.0
2017-Aug-10 20:23N 51°16' E 004°15'0 0.0
2017-Aug-10 19:26N 51°16' E 004°15'0 0.0
2017-Aug-10 18:50N 51°16' E 004°15'0 0.0
2017-Aug-10 18:29N 51°16' E 004°15'0 0.0
2017-Aug-10 17:53N 51°16' E 004°15'0 0.0
2017-Aug-10 17:11N 51°16' E 004°15'0 0.0
2017-Aug-10 16:53N 51°16' E 004°15'0 0.0
2017-Aug-10 16:26N 51°16' E 004°15'0 0.5
2017-Aug-10 16:00N 51°16' E 004°16'1 2.0
2017-Aug-10 15:30N 51°17' E 004°15'0 0.0
2017-Aug-10 15:00N 51°17' E 004°15'0 0.2
2017-Aug-10 14:30N 51°17' E 004°15'2 3.9
2017-Aug-10 14:00N 51°18' E 004°18'2 3.8
2017-Aug-10 13:30N 51°17' E 004°20'0 0.0
2017-Aug-10 13:00N 51°17' E 004°20'0 0.3
2017-Aug-10 12:30N 51°17' E 004°20'1 1.6
2017-Aug-10 12:01N 51°16' E 004°21'0 0.0
2017-Aug-10 11:25N 51°16' E 004°21'0 0.0
2017-Aug-10 10:58N 51°16' E 004°21'0 0.0
2017-Aug-10 10:28N 51°16' E 004°21'0 0.0
2017-Aug-10 09:58N 51°16' E 004°21'0 0.0
2017-Aug-10 09:25N 51°16' E 004°21'0 0.0
2017-Aug-10 08:58N 51°16' E 004°21'0 0.1
2017-Aug-10 08:28N 51°16' E 004°21'0 0.0
2017-Aug-10 07:55N 51°16' E 004°21'0 0.0
2017-Aug-10 07:28N 51°16' E 004°21'0 0.0
2017-Aug-10 06:55N 51°16' E 004°21'0 0.0
2017-Aug-10 06:28N 51°16' E 004°21'0 0.0
2017-Aug-10 05:49N 51°16' E 004°21'0 0.0
2017-Aug-10 05:28N 51°16' E 004°21'0 0.0
2017-Aug-10 04:58N 51°16' E 004°21'0 0.0
2017-Aug-10 04:28N 51°16' E 004°21'0 0.0
2017-Aug-10 03:58N 51°16' E 004°21'0 0.0
2017-Aug-10 03:28N 51°16' E 004°21'0 0.0
2017-Aug-10 02:58N 51°16' E 004°21'0 0.0
2017-Aug-10 02:28N 51°16' E 004°21'0 0.0
2017-Aug-10 01:58N 51°16' E 004°21'0 0.0
2017-Aug-10 01:28N 51°16' E 004°21'0 0.0
2017-Aug-10 00:55N 51°16' E 004°21'0 0.0
2017-Aug-10 00:28N 51°16' E 004°21'0 0.0
2017-Aug-09 23:58N 51°16' E 004°21'0 0.0
2017-Aug-09 23:28N 51°16' E 004°21'0 0.0
2017-Aug-09 22:58N 51°16' E 004°21'0 0.0
2017-Aug-09 22:28N 51°16' E 004°21'0 0.0
2017-Aug-09 21:58N 51°16' E 004°21'0 0.0
2017-Aug-09 21:28N 51°16' E 004°21'0 0.0
2017-Aug-09 20:58N 51°16' E 004°21'0 0.0
2017-Aug-09 20:28N 51°16' E 004°21'0 0.0
2017-Aug-09 19:58N 51°16' E 004°21'0 0.0
2017-Aug-09 19:28N 51°16' E 004°21'0 0.0
2017-Aug-09 18:58N 51°16' E 004°21'0 0.0
2017-Aug-09 18:25N 51°16' E 004°21'0 0.0
2017-Aug-09 17:58N 51°16' E 004°21'0 0.0
2017-Aug-09 17:28N 51°16' E 004°21'0 0.0
2017-Aug-09 16:58N 51°16' E 004°21'0 0.0
2017-Aug-09 16:28N 51°16' E 004°21'0 0.0
2017-Aug-09 15:49N 51°16' E 004°21'0 0.0
2017-Aug-09 15:28N 51°16' E 004°21'0 0.0
2017-Aug-09 14:49N 51°16' E 004°21'0 0.0
2017-Aug-09 14:25N 51°16' E 004°21'0 0.0
2017-Aug-09 13:55N 51°16' E 004°21'0 0.0
2017-Aug-09 13:19N 51°16' E 004°21'0 0.0
2017-Aug-09 12:58N 51°16' E 004°21'0 0.0
2017-Aug-09 12:25N 51°16' E 004°21'0 0.0
2017-Aug-09 11:58N 51°16' E 004°21'0 0.0
2017-Aug-09 11:28N 51°16' E 004°21'0 0.0
2017-Aug-09 10:52N 51°16' E 004°21'0 0.0
2017-Aug-09 10:22N 51°16' E 004°21'0 0.0
2017-Aug-09 09:58N 51°16' E 004°21'0 0.0
2017-Aug-09 09:16N 51°16' E 004°21'0 0.0
2017-Aug-09 08:55N 51°16' E 004°21'0 0.0
2017-Aug-09 08:25N 51°16' E 004°21'0 0.0
2017-Aug-09 07:58N 51°16' E 004°21'0 0.0
2017-Aug-09 07:28N 51°16' E 004°21'0 0.0
2017-Aug-09 06:58N 51°16' E 004°21'0 0.0
2017-Aug-09 06:22N 51°16' E 004°21'0 0.0
2017-Aug-09 05:58N 51°16' E 004°21'0 0.0
2017-Aug-09 05:28N 51°16' E 004°21'0 0.0
2017-Aug-09 04:58N 51°16' E 004°21'0 0.0
2017-Aug-09 04:28N 51°16' E 004°21'0 0.0
2017-Aug-09 03:49N 51°16' E 004°21'0 0.0
2017-Aug-09 03:28N 51°16' E 004°21'0 0.0
2017-Aug-09 02:55N 51°16' E 004°21'0 0.0
2017-Aug-09 02:25N 51°16' E 004°21'0 0.0
2017-Aug-09 01:58N 51°16' E 004°21'0 0.0
2017-Aug-09 01:28N 51°16' E 004°21'0 0.0
2017-Aug-09 00:58N 51°16' E 004°21'0 0.0
2017-Aug-09 00:28N 51°16' E 004°21'0 0.0
2017-Aug-08 23:55N 51°16' E 004°21'0 0.0
2017-Aug-08 23:28N 51°16' E 004°21'0 0.0
2017-Aug-08 22:55N 51°16' E 004°21'0 0.0
2017-Aug-08 22:28N 51°16' E 004°21'0 0.0
2017-Aug-08 21:58N 51°16' E 004°21'0 0.0
2017-Aug-08 21:28N 51°16' E 004°21'0 0.0
2017-Aug-08 20:52N 51°16' E 004°21'0 0.0
2017-Aug-08 20:25N 51°16' E 004°21'0 0.0
2017-Aug-08 19:49N 51°16' E 004°21'0 0.0
2017-Aug-08 19:28N 51°16' E 004°21'0 0.0
2017-Aug-08 18:58N 51°16' E 004°21'0 0.0
2017-Aug-08 18:28N 51°16' E 004°21'0 0.0
2017-Aug-08 17:58N 51°16' E 004°21'0 0.0
2017-Aug-08 17:28N 51°16' E 004°21'0 0.0
2017-Aug-08 16:58N 51°16' E 004°21'0 0.0
2017-Aug-08 16:22N 51°16' E 004°21'0 0.0
2017-Aug-08 15:55N 51°16' E 004°21'0 0.0
2017-Aug-08 15:25N 51°16' E 004°21'0 0.0
2017-Aug-08 14:55N 51°16' E 004°21'0 0.0
2017-Aug-08 14:28N 51°16' E 004°21'0 0.0
2017-Aug-08 13:58N 51°16' E 004°21'0 0.0
2017-Aug-08 13:28N 51°16' E 004°21'0 0.0
2017-Aug-08 12:59N 51°16' E 004°21'0 0.0
2017-Aug-08 12:25N 51°16' E 004°21'0 0.0
2017-Aug-08 12:01N 51°16' E 004°21'0 0.0
2017-Aug-08 11:31N 51°16' E 004°21'1 2.7
2017-Aug-08 11:01N 51°17' E 004°20'3 6.1
2017-Aug-08 10:30N 51°20' E 004°18'1 1.9
2017-Aug-08 10:00N 51°21' E 004°17'0 0.0
2017-Aug-08 09:31N 51°21' E 004°17'0 0.0
2017-Aug-08 09:00N 51°21' E 004°17'1 2.9
2017-Aug-08 08:30N 51°21' E 004°15'4 7.5
2017-Aug-08 08:00N 51°23' E 004°10'5 9.5
2017-Aug-08 07:30N 51°23' E 004°02'4 7.0
2017-Aug-08 07:00N 51°25' E 003°58'510.2
2017-Aug-08 06:30N 51°21' E 003°53'510.1
2017-Aug-08 06:00N 51°22' E 003°45'510.3
2017-Aug-08 05:30N 51°26' E 003°41'4 8.2
2017-Aug-08 05:00N 51°26' E 003°34'4 8.8
2017-Aug-08 04:30N 51°25' E 003°27'612.4
2017-Aug-08 04:00N 51°24' E 003°17'713.4
2017-Aug-08 03:30N 51°24' E 003°06'713.3
2017-Aug-08 03:01N 51°23' E 002°56'713.9
2017-Aug-08 02:30N 51°22' E 002°45'611.1
2017-Aug-08 02:00N 51°22' E 002°36'612.9
2017-Aug-08 01:30N 51°21' E 002°26'713.6
2017-Aug-08 01:00N 51°18' E 002°16'5 9.8
2017-Aug-08 00:30N 51°15' E 002°10'713.3
2017-Aug-08 00:00N 51°13' E 002°00'816.0
2017-Aug-07 23:30N 51°08' E 001°49'816.8
2017-Aug-07 23:00N 51°02' E 001°40'916.7
2017-Aug-07 22:30N 50°56' E 001°30'815.6
2017-Aug-07 22:00N 50°49' E 001°26'715.1
2017-Aug-07 21:31N 50°42' E 001°21'  
Track history (hours):
 
Tides and Currents Weather Stations Pressure Air Temp Water Temp Dewpoint Dewpoint Depression Visibility Wind Speed Wind Dir Waves Ship Positions

Bow Clipper

Last reported at 2017-Aug-17 21:30 UTC. Time now 2017-Aug-18 04:46 UTC.
Position N 51°57' E 002°40'.

Length 188 m; draft 6.1 m.

Type: Ship (hazmat cat B). MMSI: 258946991.

Date/timePositionNaut miles runAvg speedWind from/ knotsBaromVisibWave heightAir tempDewpointWater temp
2017-Aug-17 21:30N 51°57' E 002°40'714.2
2017-Aug-17 21:00N 51°51' E 002°40'713.8
2017-Aug-17 20:30N 51°45' E 002°34'1014.7
2017-Aug-17 19:50N 51°37' E 002°25'514.4
2017-Aug-17 19:30N 51°33' E 002°20'714.5
2017-Aug-17 19:01N 51°28' E 002°12'511.0
2017-Aug-17 18:30N 51°22' E 002°13'510.7
2017-Aug-17 18:00N 51°21' E 002°21'611.7
2017-Aug-17 17:30N 51°23' E 002°30'612.1
2017-Aug-17 17:01N 51°23' E 002°40'510.3
2017-Aug-17 16:31N 51°22' E 002°48'714.1
2017-Aug-17 16:00N 51°24' E 002°59'713.2
2017-Aug-17 15:31N 51°24' E 003°10'714.6
2017-Aug-17 15:00N 51°25' E 003°21'714.7
2017-Aug-17 14:30N 51°25' E 003°33'5 9.6
2017-Aug-17 14:01N 51°26' E 003°41'714.8
2017-Aug-17 13:31N 51°21' E 003°49'714.0
2017-Aug-17 13:01N 51°25' E 003°58'510.5
2017-Aug-17 12:31N 51°22' E 004°05'510.8
2017-Aug-17 12:01N 51°22' E 004°13'510.8
2017-Aug-17 11:31N 51°18' E 004°19'1 2.2
2017-Aug-17 11:00N 51°17' E 004°20'1 1.1
2017-Aug-17 10:30N 51°16' E 004°20'1 1.9
2017-Aug-17 09:58N 51°16' E 004°22'0 0.0
2017-Aug-17 09:28N 51°16' E 004°22'0 0.0
2017-Aug-17 09:00N 51°16' E 004°22'0 0.0
2017-Aug-17 08:30N 51°16' E 004°22'0 0.0
2017-Aug-17 07:56N 51°16' E 004°22'0 0.0
2017-Aug-17 07:28N 51°16' E 004°22'0 0.0
2017-Aug-17 06:59N 51°16' E 004°22'0 0.0
2017-Aug-17 06:30N 51°16' E 004°22'0 0.0
2017-Aug-17 05:59N 51°16' E 004°22'0 0.0
2017-Aug-17 05:30N 51°16' E 004°22'0 0.0
2017-Aug-17 05:00N 51°16' E 004°22'0 0.0
2017-Aug-17 04:28N 51°16' E 004°22'0 0.0
2017-Aug-17 03:59N 51°16' E 004°22'0 0.0
2017-Aug-17 03:26N 51°16' E 004°22'0 0.0
2017-Aug-17 02:57N 51°16' E 004°22'0 0.0
2017-Aug-17 02:27N 51°16' E 004°22'0 0.0
2017-Aug-17 01:59N 51°16' E 004°22'0 0.0
2017-Aug-17 01:30N 51°16' E 004°22'0 0.0
2017-Aug-17 00:58N 51°16' E 004°22'0 0.0
2017-Aug-17 00:29N 51°16' E 004°22'0 0.0
2017-Aug-16 23:58N 51°16' E 004°22'0 0.0
2017-Aug-16 23:28N 51°16' E 004°22'0 0.0
2017-Aug-16 22:59N 51°16' E 004°22'0 0.0
2017-Aug-16 22:30N 51°16' E 004°22'0 0.0
2017-Aug-16 22:00N 51°16' E 004°22'0 0.0
2017-Aug-16 21:31N 51°16' E 004°22'0 0.0
2017-Aug-16 21:01N 51°16' E 004°22'0 0.0
2017-Aug-16 20:30N 51°16' E 004°22'0 0.0
2017-Aug-16 19:57N 51°16' E 004°22'0 0.0
2017-Aug-16 19:22N 51°16' E 004°22'0 0.0
2017-Aug-16 18:58N 51°16' E 004°22'0 0.0
2017-Aug-16 18:29N 51°16' E 004°22'0 0.0
2017-Aug-16 18:00N 51°16' E 004°22'0 0.0
2017-Aug-16 17:30N 51°16' E 004°22'0 0.0
2017-Aug-16 17:01N 51°16' E 004°22'0 0.0
2017-Aug-16 16:30N 51°16' E 004°22'0 0.0
2017-Aug-16 15:57N 51°16' E 004°22'0 0.0
2017-Aug-16 15:29N 51°16' E 004°22'0 0.0
2017-Aug-16 15:00N 51°16' E 004°22'0 0.3
2017-Aug-16 14:26N 51°15' E 004°22'0 0.0
2017-Aug-16 13:56N 51°15' E 004°22'0 0.1
2017-Aug-16 13:23N 51°15' E 004°22'0 0.2
2017-Aug-16 12:59N 51°15' E 004°22'0 0.2
2017-Aug-16 12:29N 51°15' E 004°22'0 0.1
2017-Aug-16 11:56N 51°15' E 004°22'0 0.0
2017-Aug-16 11:23N 51°15' E 004°22'0 0.3
2017-Aug-16 11:01N 51°15' E 004°21'1 2.6
2017-Aug-16 10:31N 51°17' E 004°20'2 4.8
2017-Aug-16 10:01N 51°19' E 004°19'3 5.9
2017-Aug-16 09:31N 51°22' E 004°17'0 0.0
2017-Aug-15 17:11N 51°22' E 004°17'0 0.0
2017-Aug-15 14:38N 51°22' E 004°17'0 0.0
2017-Aug-15 13:02N 51°22' E 004°17'0 0.0
2017-Aug-15 11:47N 51°22' E 004°17'0 0.8
2017-Aug-15 11:29N 51°22' E 004°17'1 1.8
2017-Aug-15 11:01N 51°21' E 004°17'0 0.0
2017-Aug-15 10:29N 51°21' E 004°17'0 0.1
2017-Aug-15 10:00N 51°21' E 004°17'1 1.4
2017-Aug-15 09:30N 51°20' E 004°16'4 7.1
2017-Aug-15 09:00N 51°17' E 004°15'0 0.6
2017-Aug-15 08:30N 51°17' E 004°15'0 1.0
2017-Aug-15 08:00N 51°16' E 004°15'1 0.8
2017-Aug-15 07:10N 51°16' E 004°15'0 0.0
2017-Aug-15 06:16N 51°16' E 004°15'0 0.0
2017-Aug-15 05:28N 51°16' E 004°15'0 0.0
2017-Aug-15 04:58N 51°16' E 004°15'0 0.0
2017-Aug-15 04:16N 51°16' E 004°15'0 0.0
2017-Aug-15 02:25N 51°16' E 004°15'0 0.0
2017-Aug-15 01:58N 51°16' E 004°15'0 0.0
2017-Aug-15 00:04N 51°16' E 004°15'0 0.0
2017-Aug-14 23:52N 51°16' E 004°15'0 0.0
2017-Aug-14 23:22N 51°16' E 004°15'0 0.0
2017-Aug-14 22:52N 51°16' E 004°15'0 0.0
2017-Aug-14 22:28N 51°16' E 004°15'0 0.0
2017-Aug-14 21:34N 51°16' E 004°15'0 0.0
2017-Aug-14 21:25N 51°16' E 004°15'0 0.0
2017-Aug-14 20:27N 51°16' E 004°15'0 0.0
2017-Aug-14 19:51N 51°16' E 004°15'0 0.0
2017-Aug-14 19:15N 51°16' E 004°15'0 0.0
2017-Aug-14 18:57N 51°16' E 004°15'0 0.0
2017-Aug-14 18:18N 51°16' E 004°15'0 0.0
2017-Aug-14 17:56N 51°16' E 004°15'0 0.0
2017-Aug-14 17:26N 51°16' E 004°15'0 0.0
2017-Aug-14 16:54N 51°16' E 004°15'0 0.0
2017-Aug-14 16:19N 51°16' E 004°15'0 0.0
2017-Aug-14 15:55N 51°16' E 004°15'0 0.0
2017-Aug-14 15:28N 51°16' E 004°15'0 0.0
2017-Aug-14 14:43N 51°16' E 004°15'0 0.0
2017-Aug-14 14:25N 51°16' E 004°15'0 0.0
2017-Aug-14 13:43N 51°16' E 004°15'0 0.0
2017-Aug-14 13:07N 51°16' E 004°15'0 0.0
2017-Aug-14 12:58N 51°16' E 004°15'0 0.0
2017-Aug-14 12:25N 51°16' E 004°15'0 0.0
2017-Aug-14 11:58N 51°16' E 004°15'0 0.0
2017-Aug-14 11:25N 51°16' E 004°15'0 0.0
2017-Aug-14 10:55N 51°16' E 004°15'0 0.0
2017-Aug-14 10:13N 51°16' E 004°15'0 0.0
2017-Aug-14 09:58N 51°16' E 004°15'0 0.0
2017-Aug-14 08:31N 51°16' E 004°15'0 0.0
2017-Aug-14 08:10N 51°16' E 004°15'0 0.0
2017-Aug-14 07:52N 51°16' E 004°15'0 0.0
2017-Aug-14 07:28N 51°16' E 004°15'0 0.0
2017-Aug-14 06:55N 51°16' E 004°15'0 0.0
2017-Aug-14 06:25N 51°16' E 004°15'0 0.0
2017-Aug-14 04:34N 51°16' E 004°15'0 0.0
2017-Aug-14 04:28N 51°16' E 004°15'0 0.0
2017-Aug-14 03:40N 51°16' E 004°15'0 0.0
2017-Aug-14 03:25N 51°16' E 004°15'0 0.0
2017-Aug-14 02:43N 51°16' E 004°15'0 0.0
2017-Aug-14 02:28N 51°16' E 004°15'0 0.0
2017-Aug-14 01:52N 51°16' E 004°15'0 0.0
2017-Aug-14 01:19N 51°16' E 004°15'0 0.0
2017-Aug-14 00:49N 51°16' E 004°15'0 0.0
2017-Aug-14 00:30N 51°16' E 004°15'0 0.1
2017-Aug-13 23:59N 51°16' E 004°15'0 0.0
2017-Aug-13 23:23N 51°16' E 004°15'0 0.0
2017-Aug-13 22:34N 51°16' E 004°15'0 0.0
2017-Aug-13 22:19N 51°16' E 004°15'0 0.0
2017-Aug-13 21:55N 51°16' E 004°15'0 0.0
2017-Aug-13 21:10N 51°16' E 004°15'0 0.0
2017-Aug-13 20:40N 51°16' E 004°15'0 0.0
2017-Aug-13 20:28N 51°16' E 004°15'0 0.0
2017-Aug-13 19:52N 51°16' E 004°15'0 0.0
2017-Aug-13 19:28N 51°16' E 004°15'0 0.0
2017-Aug-13 18:22N 51°16' E 004°15'0 0.0
2017-Aug-13 17:01N 51°16' E 004°15'0 0.0
2017-Aug-13 16:55N 51°16' E 004°15'0 0.0
2017-Aug-13 16:28N 51°16' E 004°15'0 0.0
2017-Aug-13 15:59N 51°16' E 004°15'0 0.0
2017-Aug-13 15:18N 51°16' E 004°15'0 0.0
2017-Aug-13 15:00N 51°16' E 004°15'0 0.0
2017-Aug-13 13:39N 51°16' E 004°15'0 0.0
2017-Aug-13 13:30N 51°16' E 004°15'0 0.0
2017-Aug-13 13:00N 51°16' E 004°15'0 0.0
2017-Aug-13 12:30N 51°16' E 004°15'0 0.0
2017-Aug-13 11:21N 51°16' E 004°15'0 0.0
2017-Aug-13 10:48N 51°16' E 004°15'0 0.0
2017-Aug-13 10:27N 51°16' E 004°15'0 0.0
2017-Aug-13 09:42N 51°16' E 004°15'0 0.0
2017-Aug-13 09:27N 51°16' E 004°15'0 0.0
2017-Aug-13 08:54N 51°16' E 004°15'0 0.0
2017-Aug-13 08:21N 51°16' E 004°15'0 0.0
2017-Aug-13 07:57N 51°16' E 004°15'0 0.0
2017-Aug-13 07:27N 51°16' E 004°15'0 0.0
2017-Aug-13 07:00N 51°16' E 004°15'0 0.0
2017-Aug-13 06:30N 51°16' E 004°15'0 0.0
2017-Aug-13 05:59N 51°16' E 004°15'0 0.0
2017-Aug-13 05:23N 51°16' E 004°15'0 0.0
2017-Aug-13 04:56N 51°16' E 004°15'0 0.0
2017-Aug-13 04:26N 51°16' E 004°15'0 0.0
2017-Aug-13 03:59N 51°16' E 004°15'0 0.0
2017-Aug-13 03:23N 51°16' E 004°15'0 0.0
2017-Aug-13 02:59N 51°16' E 004°15'0 0.0
2017-Aug-13 02:29N 51°16' E 004°15'0 0.0
2017-Aug-13 01:56N 51°16' E 004°15'0 0.0
2017-Aug-13 01:29N 51°16' E 004°15'0 0.0
2017-Aug-13 00:59N 51°16' E 004°15'0 0.0
2017-Aug-13 00:14N 51°16' E 004°15'0 0.0
2017-Aug-12 23:50N 51°16' E 004°15'0 0.0
2017-Aug-12 23:26N 51°16' E 004°15'0 0.0
2017-Aug-12 22:47N 51°16' E 004°15'0 0.0
2017-Aug-12 22:29N 51°16' E 004°15'0 0.0
2017-Aug-12 21:59N 51°16' E 004°15'0 0.0
2017-Aug-12 21:29N 51°16' E 004°15'0 0.0
2017-Aug-12 20:47N 51°16' E 004°15'0 0.0
2017-Aug-12 20:29N 51°16' E 004°15'0 0.0
2017-Aug-12 19:41N 51°16' E 004°15'0 0.0
2017-Aug-12 19:26N 51°16' E 004°15'0 0.0
2017-Aug-12 18:56N 51°16' E 004°15'0 0.0
2017-Aug-12 18:26N 51°16' E 004°15'0 0.0
2017-Aug-12 17:59N 51°16' E 004°15'0 0.0
2017-Aug-12 17:11N 51°16' E 004°15'0 0.0
2017-Aug-12 16:47N 51°16' E 004°15'0 0.0
2017-Aug-12 16:23N 51°16' E 004°15'0 0.0
2017-Aug-12 15:59N 51°16' E 004°15'0 0.0
2017-Aug-12 15:20N 51°16' E 004°15'0 0.0
2017-Aug-12 14:56N 51°16' E 004°15'0 0.0
2017-Aug-12 14:23N 51°16' E 004°15'0 0.0
2017-Aug-12 13:59N 51°16' E 004°15'0 0.0
2017-Aug-12 13:23N 51°16' E 004°15'0 0.0
2017-Aug-12 12:56N 51°16' E 004°15'0 0.0
2017-Aug-12 12:26N 51°16' E 004°15'0 0.0
2017-Aug-12 11:53N 51°16' E 004°15'0 0.0
2017-Aug-12 11:26N 51°16' E 004°15'0 0.0
2017-Aug-12 10:59N 51°16' E 004°15'0 0.0
2017-Aug-12 10:20N 51°16' E 004°15'0 0.0
2017-Aug-12 09:53N 51°16' E 004°15'0 0.0
2017-Aug-12 09:29N 51°16' E 004°15'0 0.0
2017-Aug-12 08:23N 51°16' E 004°15'0 0.0
2017-Aug-12 07:44N 51°16' E 004°15'0 0.0
2017-Aug-12 07:26N 51°16' E 004°15'0 0.0
2017-Aug-12 06:56N 51°16' E 004°15'0 0.0
2017-Aug-12 06:14N 51°16' E 004°15'0 0.0
2017-Aug-12 05:44N 51°16' E 004°15'0 0.0
2017-Aug-12 05:29N 51°16' E 004°15'0 0.0
2017-Aug-12 04:59N 51°16' E 004°15'0 0.0
2017-Aug-12 04:29N 51°16' E 004°15'0 0.0
2017-Aug-12 03:59N 51°16' E 004°15'0 0.0
2017-Aug-12 03:29N 51°16' E 004°15'0 0.0
2017-Aug-12 02:59N 51°16' E 004°15'0 0.0
2017-Aug-12 02:17N 51°16' E 004°15'0 0.0
2017-Aug-12 01:56N 51°16' E 004°15'0 0.0
2017-Aug-12 01:26N 51°16' E 004°15'0 0.0
2017-Aug-12 00:56N 51°16' E 004°15'0 0.0
2017-Aug-12 00:17N 51°16' E 004°15'0 0.0
2017-Aug-11 23:53N 51°16' E 004°15'0 0.0
2017-Aug-11 23:11N 51°16' E 004°15'0 0.0
2017-Aug-11 22:59N 51°16' E 004°15'0 0.0
2017-Aug-11 22:23N 51°16' E 004°15'0 0.0
2017-Aug-11 21:59N 51°16' E 004°15'0 0.0
2017-Aug-11 21:26N 51°16' E 004°15'0 0.0
2017-Aug-11 20:56N 51°16' E 004°15'0 0.0
2017-Aug-11 20:29N 51°16' E 004°15'0 0.0
2017-Aug-11 19:53N 51°16' E 004°15'0 0.0
2017-Aug-11 19:29N 51°16' E 004°15'0 0.0
2017-Aug-11 18:50N 51°16' E 004°15'0 0.0
2017-Aug-11 18:08N 51°16' E 004°15'0 0.0
2017-Aug-11 17:53N 51°16' E 004°15'0 0.0
2017-Aug-11 17:17N 51°16' E 004°15'0 0.0
2017-Aug-11 16:50N 51°16' E 004°15'0 0.0
2017-Aug-11 15:56N 51°16' E 004°15'0 0.0
2017-Aug-11 15:23N 51°16' E 004°15'0 0.0
2017-Aug-11 14:53N 51°16' E 004°15'0 0.0
2017-Aug-11 13:53N 51°16' E 004°15'0 0.0
2017-Aug-11 13:29N 51°16' E 004°15'0 0.0
2017-Aug-11 12:11N 51°16' E 004°15'0 0.0
2017-Aug-11 11:59N 51°16' E 004°15'0 0.0
2017-Aug-11 11:29N 51°16' E 004°15'0 0.0
2017-Aug-11 10:59N 51°16' E 004°15'0 0.0
2017-Aug-11 10:29N 51°16' E 004°15'0 0.0
2017-Aug-11 09:50N 51°16' E 004°15'0 0.0
2017-Aug-11 09:26N 51°16' E 004°15'0 0.0
2017-Aug-11 08:59N 51°16' E 004°15'0 0.0
2017-Aug-11 08:23N 51°16' E 004°15'0 0.0
2017-Aug-11 07:53N 51°16' E 004°15'0 0.0
2017-Aug-11 07:29N 51°16' E 004°15'0 0.0
2017-Aug-11 06:59N 51°16' E 004°15'0 0.0
2017-Aug-11 06:20N 51°16' E 004°15'0 0.0
2017-Aug-11 05:59N 51°16' E 004°15'0 0.0
2017-Aug-11 05:23N 51°16' E 004°15'0 0.0
2017-Aug-11 04:59N 51°16' E 004°15'0 0.0
2017-Aug-11 04:05N 51°16' E 004°15'0 0.0
2017-Aug-11 03:47N 51°16' E 004°15'0 0.0
2017-Aug-11 03:20N 51°16' E 004°15'0 0.0
2017-Aug-11 02:56N 51°16' E 004°15'0 0.0
2017-Aug-11 02:26N 51°16' E 004°15'0 0.0
2017-Aug-11 01:56N 51°16' E 004°15'0 0.0
2017-Aug-11 01:29N 51°16' E 004°15'0 0.0
2017-Aug-11 00:50N 51°16' E 004°15'0 0.0
2017-Aug-11 00:20N 51°16' E 004°15'0 0.0
2017-Aug-10 23:59N 51°16' E 004°15'0 0.0
2017-Aug-10 23:29N 51°16' E 004°15'0 0.0
2017-Aug-10 22:59N 51°16' E 004°15'0 0.0
2017-Aug-10 22:23N 51°16' E 004°15'0 0.0
2017-Aug-10 21:14N 51°16' E 004°15'0 0.0
2017-Aug-10 20:53N 51°16' E 004°15'0 0.0
2017-Aug-10 20:23N 51°16' E 004°15'0 0.0
2017-Aug-10 19:26N 51°16' E 004°15'0 0.0
2017-Aug-10 18:50N 51°16' E 004°15'0 0.0
2017-Aug-10 18:29N 51°16' E 004°15'0 0.0
2017-Aug-10 17:53N 51°16' E 004°15'0 0.0
2017-Aug-10 17:11N 51°16' E 004°15'0 0.0
2017-Aug-10 16:53N 51°16' E 004°15'0 0.0
2017-Aug-10 16:26N 51°16' E 004°15'0 0.5
2017-Aug-10 16:00N 51°16' E 004°16'1 2.0
2017-Aug-10 15:30N 51°17' E 004°15'0 0.0
2017-Aug-10 15:00N 51°17' E 004°15'0 0.2
2017-Aug-10 14:30N 51°17' E 004°15'2 3.9
2017-Aug-10 14:00N 51°18' E 004°18'2 3.8
2017-Aug-10 13:30N 51°17' E 004°20'0 0.0
2017-Aug-10 13:00N 51°17' E 004°20'0 0.3
2017-Aug-10 12:30N 51°17' E 004°20'1 1.6
2017-Aug-10 12:01N 51°16' E 004°21'0 0.0
2017-Aug-10 11:25N 51°16' E 004°21'0 0.0
2017-Aug-10 10:58N 51°16' E 004°21'0 0.0
2017-Aug-10 10:28N 51°16' E 004°21'0 0.0
2017-Aug-10 09:58N 51°16' E 004°21'0 0.0
2017-Aug-10 09:25N 51°16' E 004°21'0 0.0
2017-Aug-10 08:58N 51°16' E 004°21'0 0.1
2017-Aug-10 08:28N 51°16' E 004°21'0 0.0
2017-Aug-10 07:55N 51°16' E 004°21'0 0.0
2017-Aug-10 07:28N 51°16' E 004°21'0 0.0
2017-Aug-10 06:55N 51°16' E 004°21'0 0.0
2017-Aug-10 06:28N 51°16' E 004°21'0 0.0
2017-Aug-10 05:49N 51°16' E 004°21'0 0.0
2017-Aug-10 05:28N 51°16' E 004°21'0 0.0
2017-Aug-10 04:58N 51°16' E 004°21'0 0.0
2017-Aug-10 04:28N 51°16' E 004°21'0 0.0
2017-Aug-10 03:58N 51°16' E 004°21'0 0.0
2017-Aug-10 03:28N 51°16' E 004°21'0 0.0
2017-Aug-10 02:58N 51°16' E 004°21'0 0.0
2017-Aug-10 02:28N 51°16' E 004°21'0 0.0
2017-Aug-10 01:58N 51°16' E 004°21'0 0.0
2017-Aug-10 01:28N 51°16' E 004°21'0 0.0
2017-Aug-10 00:55N 51°16' E 004°21'0 0.0
2017-Aug-10 00:28N 51°16' E 004°21'0 0.0
2017-Aug-09 23:58N 51°16' E 004°21'0 0.0
2017-Aug-09 23:28N 51°16' E 004°21'0 0.0
2017-Aug-09 22:58N 51°16' E 004°21'0 0.0
2017-Aug-09 22:28N 51°16' E 004°21'0 0.0
2017-Aug-09 21:58N 51°16' E 004°21'0 0.0
2017-Aug-09 21:28N 51°16' E 004°21'0 0.0
2017-Aug-09 20:58N 51°16' E 004°21'0 0.0
2017-Aug-09 20:28N 51°16' E 004°21'0 0.0
2017-Aug-09 19:58N 51°16' E 004°21'0 0.0
2017-Aug-09 19:28N 51°16' E 004°21'0 0.0
2017-Aug-09 18:58N 51°16' E 004°21'0 0.0
2017-Aug-09 18:25N 51°16' E 004°21'0 0.0
2017-Aug-09 17:58N 51°16' E 004°21'0 0.0
2017-Aug-09 17:28N 51°16' E 004°21'0 0.0
2017-Aug-09 16:58N 51°16' E 004°21'0 0.0
2017-Aug-09 16:28N 51°16' E 004°21'0 0.0
2017-Aug-09 15:49N 51°16' E 004°21'0 0.0
2017-Aug-09 15:28N 51°16' E 004°21'0 0.0
2017-Aug-09 14:49N 51°16' E 004°21'0 0.0
2017-Aug-09 14:25N 51°16' E 004°21'0 0.0
2017-Aug-09 13:55N 51°16' E 004°21'0 0.0
2017-Aug-09 13:19N 51°16' E 004°21'0 0.0
2017-Aug-09 12:58N 51°16' E 004°21'0 0.0
2017-Aug-09 12:25N 51°16' E 004°21'0 0.0
2017-Aug-09 11:58N 51°16' E 004°21'0 0.0
2017-Aug-09 11:28N 51°16' E 004°21'0 0.0
2017-Aug-09 10:52N 51°16' E 004°21'0 0.0
2017-Aug-09 10:22N 51°16' E 004°21'0 0.0
2017-Aug-09 09:58N 51°16' E 004°21'0 0.0
2017-Aug-09 09:16N 51°16' E 004°21'0 0.0
2017-Aug-09 08:55N 51°16' E 004°21'0 0.0
2017-Aug-09 08:25N 51°16' E 004°21'0 0.0
2017-Aug-09 07:58N 51°16' E 004°21'0 0.0
2017-Aug-09 07:28N 51°16' E 004°21'0 0.0
2017-Aug-09 06:58N 51°16' E 004°21'0 0.0
2017-Aug-09 06:22N 51°16' E 004°21'0 0.0
2017-Aug-09 05:58N 51°16' E 004°21'0 0.0
2017-Aug-09 05:28N 51°16' E 004°21'0 0.0
2017-Aug-09 04:58N 51°16' E 004°21'0 0.0
2017-Aug-09 04:28N 51°16' E 004°21'0 0.0
2017-Aug-09 03:49N 51°16' E 004°21'0 0.0
2017-Aug-09 03:28N 51°16' E 004°21'0 0.0
2017-Aug-09 02:55N 51°16' E 004°21'0 0.0
2017-Aug-09 02:25N 51°16' E 004°21'0 0.0
2017-Aug-09 01:58N 51°16' E 004°21'0 0.0
2017-Aug-09 01:28N 51°16' E 004°21'0 0.0
2017-Aug-09 00:58N 51°16' E 004°21'0 0.0
2017-Aug-09 00:28N 51°16' E 004°21'0 0.0
2017-Aug-08 23:55N 51°16' E 004°21'0 0.0
2017-Aug-08 23:28N 51°16' E 004°21'0 0.0
2017-Aug-08 22:55N 51°16' E 004°21'0 0.0
2017-Aug-08 22:28N 51°16' E 004°21'0 0.0
2017-Aug-08 21:58N 51°16' E 004°21'0 0.0
2017-Aug-08 21:28N 51°16' E 004°21'0 0.0
2017-Aug-08 20:52N 51°16' E 004°21'0 0.0
2017-Aug-08 20:25N 51°16' E 004°21'0 0.0
2017-Aug-08 19:49N 51°16' E 004°21'0 0.0
2017-Aug-08 19:28N 51°16' E 004°21'0 0.0
2017-Aug-08 18:58N 51°16' E 004°21'0 0.0
2017-Aug-08 18:28N 51°16' E 004°21'0 0.0
2017-Aug-08 17:58N 51°16' E 004°21'0 0.0
2017-Aug-08 17:28N 51°16' E 004°21'0 0.0
2017-Aug-08 16:58N 51°16' E 004°21'0 0.0
2017-Aug-08 16:22N 51°16' E 004°21'0 0.0
2017-Aug-08 15:55N 51°16' E 004°21'0 0.0
2017-Aug-08 15:25N 51°16' E 004°21'0 0.0
2017-Aug-08 14:55N 51°16' E 004°21'0 0.0
2017-Aug-08 14:28N 51°16' E 004°21'0 0.0
2017-Aug-08 13:58N 51°16' E 004°21'0 0.0
2017-Aug-08 13:28N 51°16' E 004°21'0 0.0
2017-Aug-08 12:59N 51°16' E 004°21'0 0.0
2017-Aug-08 12:25N 51°16' E 004°21'0 0.0
2017-Aug-08 12:01N 51°16' E 004°21'0 0.0
2017-Aug-08 11:31N 51°16' E 004°21'1 2.7
2017-Aug-08 11:01N 51°17' E 004°20'3 6.1
2017-Aug-08 10:30N 51°20' E 004°18'1 1.9
2017-Aug-08 10:00N 51°21' E 004°17'0 0.0
2017-Aug-08 09:31N 51°21' E 004°17'0 0.0
2017-Aug-08 09:00N 51°21' E 004°17'1 2.9
2017-Aug-08 08:30N 51°21' E 004°15'4 7.5
2017-Aug-08 08:00N 51°23' E 004°10'5 9.5
2017-Aug-08 07:30N 51°23' E 004°02'4 7.0
2017-Aug-08 07:00N 51°25' E 003°58'510.2
2017-Aug-08 06:30N 51°21' E 003°53'510.1
2017-Aug-08 06:00N 51°22' E 003°45'510.3
2017-Aug-08 05:30N 51°26' E 003°41'4 8.2
2017-Aug-08 05:00N 51°26' E 003°34'4 8.8
2017-Aug-08 04:30N 51°25' E 003°27'612.4
2017-Aug-08 04:00N 51°24' E 003°17'713.4
2017-Aug-08 03:30N 51°24' E 003°06'713.3
2017-Aug-08 03:01N 51°23' E 002°56'713.9
2017-Aug-08 02:30N 51°22' E 002°45'611.1
2017-Aug-08 02:00N 51°22' E 002°36'612.9
2017-Aug-08 01:30N 51°21' E 002°26'713.6
2017-Aug-08 01:00N 51°18' E 002°16'5 9.8
2017-Aug-08 00:30N 51°15' E 002°10'713.3
2017-Aug-08 00:00N 51°13' E 002°00'816.0
2017-Aug-07 23:30N 51°08' E 001°49'816.8
2017-Aug-07 23:00N 51°02' E 001°40'916.7
2017-Aug-07 22:30N 50°56' E 001°30'815.6
2017-Aug-07 22:00N 50°49' E 001°26'715.1
2017-Aug-07 21:31N 50°42' E 001°21'  

Dump ship's entire track history